Cedar Vale, KS (67024)

11:01 PM CST on March 02, 2015 (GMT -0600)
US166 K15 Junction | Change Station
CLOSE
Current Station
Personal Weather Station
Location: Dexter, KS
Elevation: 1270 ft
Nearby Weather Stations

Elev 1270 ft 37.11 °N, 96.71 °W | Updated 17 seconds ago

Overcast
Overcast
33.2 °F
Feels Like 22 °F
N
17.0
Wind Variable Wind from SSE
Gusts 17.0 mph

Today
High -- | Low -- °F
--% Chance of Precip.
Yesterday
High -- | Low -- °F
Precip. -- in
6:55 AM 6:20 PM
Waxing Gibbous, 94% visible
Pressure 30.04 in
Visibility 4.0 miles
Clouds Overcast 300 ft
Windchill 22 °F
Dew Point 32 °F
Humidity 96%
Rainfall 0.02 in
Snow Depth Not available.
UV 0 out of 12
Pollen .50 out of 12
Air Quality Not available.
Flu Activity Not available.
METAR KWLD 030454Z AUTO 17014KT 4SM BR OVC003 01/01 A3001 RMK AO2 SLP173 T00060006

More Conditions Fewer Conditions

Pressure 30.04 in
Visibility 4.0 miles
Clouds Overcast 300 ft
Windchill 22 °F
Dew Point 32 °F
Humidity 96%
Rainfall 0.02 in
Snow Depth Not available.
UV 0 out of 12
Pollen .50 out of 12
Air Quality Not available.
Flu Activity Not available.
METAR KWLD 030454Z AUTO 17014KT 4SM BR OVC003 01/01 A3001 RMK AO2 SLP173 T00060006

More Conditions Fewer Conditions

10-Day Weather Forecast

Almanac

Astronomy

Mar. 02, 2015 Rise Set
Actual Time
Civil Twilight
Nautical Twilight
Astronomical Twilight
Moon
Length of Visible Light
Length of Day
Tomorrow will be .
, % of the Moon is Illuminated

Today's Extremes

State Highs State Lows

Community

WunderPhotos

Upload Photos

1,802,065 photos uploaded!

WunderBlogs® & News

Nearby

Air Quality

  Air Quality AQ Index Pollutant
Not available.

Snow Depth

Station Depth Elevation

Earthquake Activity

City Distance Mag. Time & Date
Minimum magnitude displayed is 2.5.

Coastal Water Temperatures

Place Temperature

Nearby Weather Stations